sensor_id;sensor_type;location;lat;lon;timestamp;temperature;humidity
67901;DHT22;54700;51.796;10.956;2024-01-25T00:00:56;8.00;72.00
67901;DHT22;54700;51.796;10.956;2024-01-25T00:03:23;8.00;72.00
67901;DHT22;54700;51.796;10.956;2024-01-25T00:05:50;8.00;72.00
67901;DHT22;54700;51.796;10.956;2024-01-25T00:08:16;8.00;72.10
67901;DHT22;54700;51.796;10.956;2024-01-25T00:10:43;8.00;72.10
67901;DHT22;54700;51.796;10.956;2024-01-25T00:13:10;8.00;72.40
67901;DHT22;54700;51.796;10.956;2024-01-25T00:15:37;8.00;72.50
67901;DHT22;54700;51.796;10.956;2024-01-25T00:18:05;8.00;72.60
67901;DHT22;54700;51.796;10.956;2024-01-25T00:20:32;8.00;72.60
67901;DHT22;54700;51.796;10.956;2024-01-25T00:22:59;8.00;72.60
67901;DHT22;54700;51.796;10.956;2024-01-25T00:25:26;8.00;72.60
67901;DHT22;54700;51.796;10.956;2024-01-25T00:27:53;7.90;72.80
67901;DHT22;54700;51.796;10.956;2024-01-25T00:30:20;7.90;72.80
67901;DHT22;54700;51.796;10.956;2024-01-25T00:32:47;7.90;73.10
67901;DHT22;54700;51.796;10.956;2024-01-25T00:35:16;7.90;73.40
67901;DHT22;54700;51.796;10.956;2024-01-25T00:37:43;7.80;73.70
67901;DHT22;54700;51.796;10.956;2024-01-25T00:40:11;7.70;73.40
67901;DHT22;54700;51.796;10.956;2024-01-25T00:42:41;7.70;73.60
67901;DHT22;54700;51.796;10.956;2024-01-25T00:45:09;7.70;73.70
67901;DHT22;54700;51.796;10.956;2024-01-25T00:47:37;7.70;73.90
67901;DHT22;54700;51.796;10.956;2024-01-25T00:50:05;7.60;74.00
67901;DHT22;54700;51.796;10.956;2024-01-25T00:52:34;7.60;74.20
67901;DHT22;54700;51.796;10.956;2024-01-25T00:55:02;7.50;74.20
67901;DHT22;54700;51.796;10.956;2024-01-25T00:57:29;7.60;73.90
67901;DHT22;54700;51.796;10.956;2024-01-25T00:59:58;7.60;73.80
67901;DHT22;54700;51.796;10.956;2024-01-25T01:02:25;7.60;73.50
67901;DHT22;54700;51.796;10.956;2024-01-25T01:04:56;7.60;73.20
67901;DHT22;54700;51.796;10.956;2024-01-25T01:07:24;7.60;73.00
67901;DHT22;54700;51.796;10.956;2024-01-25T01:09:54;7.70;72.80
67901;DHT22;54700;51.796;10.956;2024-01-25T01:12:21;7.70;72.60
67901;DHT22;54700;51.796;10.956;2024-01-25T01:14:47;7.70;72.60
67901;DHT22;54700;51.796;10.956;2024-01-25T01:17:14;7.70;72.50
67901;DHT22;54700;51.796;10.956;2024-01-25T01:19:43;7.70;72.40
67901;DHT22;54700;51.796;10.956;2024-01-25T01:22:10;7.70;72.50
67901;DHT22;54700;51.796;10.956;2024-01-25T01:24:37;7.70;72.50
67901;DHT22;54700;51.796;10.956;2024-01-25T01:27:05;7.60;72.90
67901;DHT22;54700;51.796;10.956;2024-01-25T01:29:33;7.60;73.00
67901;DHT22;54700;51.796;10.956;2024-01-25T01:32:00;7.60;73.00
67901;DHT22;54700;51.796;10.956;2024-01-25T01:34:27;7.60;73.20
67901;DHT22;54700;51.796;10.956;2024-01-25T01:36:54;7.50;73.40
67901;DHT22;54700;51.796;10.956;2024-01-25T01:39:21;7.50;73.60
67901;DHT22;54700;51.796;10.956;2024-01-25T01:41:48;7.50;73.70
67901;DHT22;54700;51.796;10.956;2024-01-25T01:44:16;7.50;73.80
67901;DHT22;54700;51.796;10.956;2024-01-25T01:46:44;7.50;73.40
67901;DHT22;54700;51.796;10.956;2024-01-25T01:49:11;7.50;73.50
67901;DHT22;54700;51.796;10.956;2024-01-25T01:51:40;7.40;73.50
67901;DHT22;54700;51.796;10.956;2024-01-25T01:54:09;7.40;73.50
67901;DHT22;54700;51.796;10.956;2024-01-25T01:56:36;7.40;73.50
67901;DHT22;54700;51.796;10.956;2024-01-25T01:59:06;7.40;73.80
67901;DHT22;54700;51.796;10.956;2024-01-25T02:01:36;7.40;74.00
67901;DHT22;54700;51.796;10.956;2024-01-25T02:04:03;7.40;73.60
67901;DHT22;54700;51.796;10.956;2024-01-25T02:06:31;7.40;73.90
67901;DHT22;54700;51.796;10.956;2024-01-25T02:08:58;7.40;73.20
67901;DHT22;54700;51.796;10.956;2024-01-25T02:11:25;7.40;73.70
67901;DHT22;54700;51.796;10.956;2024-01-25T02:13:52;7.40;73.80
67901;DHT22;54700;51.796;10.956;2024-01-25T02:16:25;7.30;73.80
67901;DHT22;54700;51.796;10.956;2024-01-25T02:18:53;7.30;74.00
67901;DHT22;54700;51.796;10.956;2024-01-25T02:21:22;7.30;73.90
67901;DHT22;54700;51.796;10.956;2024-01-25T02:23:51;7.30;74.00
67901;DHT22;54700;51.796;10.956;2024-01-25T02:26:20;7.30;73.80
67901;DHT22;54700;51.796;10.956;2024-01-25T02:28:47;7.30;73.40
67901;DHT22;54700;51.796;10.956;2024-01-25T02:31:14;7.30;73.30
67901;DHT22;54700;51.796;10.956;2024-01-25T02:33:41;7.30;73.30
67901;DHT22;54700;51.796;10.956;2024-01-25T02:36:08;7.30;73.20
67901;DHT22;54700;51.796;10.956;2024-01-25T02:38:34;7.30;73.30
67901;DHT22;54700;51.796;10.956;2024-01-25T02:41:03;7.30;72.90
67901;DHT22;54700;51.796;10.956;2024-01-25T02:43:30;7.30;73.10
67901;DHT22;54700;51.796;10.956;2024-01-25T02:45:57;7.30;73.00
67901;DHT22;54700;51.796;10.956;2024-01-25T02:48:24;7.30;72.80
67901;DHT22;54700;51.796;10.956;2024-01-25T02:50:51;7.30;72.60
67901;DHT22;54700;51.796;10.956;2024-01-25T02:53:18;7.30;72.60
67901;DHT22;54700;51.796;10.956;2024-01-25T02:55:45;7.20;72.80
67901;DHT22;54700;51.796;10.956;2024-01-25T02:58:13;7.20;72.80
67901;DHT22;54700;51.796;10.956;2024-01-25T03:00:43;7.20;73.00
67901;DHT22;54700;51.796;10.956;2024-01-25T03:03:10;7.20;72.90
67901;DHT22;54700;51.796;10.956;2024-01-25T03:05:37;7.20;72.70
67901;DHT22;54700;51.796;10.956;2024-01-25T03:08:04;7.20;72.60
67901;DHT22;54700;51.796;10.956;2024-01-25T03:10:31;7.10;72.60
67901;DHT22;54700;51.796;10.956;2024-01-25T03:12:58;7.10;72.20
67901;DHT22;54700;51.796;10.956;2024-01-25T03:15:26;7.10;72.10
67901;DHT22;54700;51.796;10.956;2024-01-25T03:17:53;7.20;72.10
67901;DHT22;54700;51.796;10.956;2024-01-25T03:20:20;7.20;72.20
67901;DHT22;54700;51.796;10.956;2024-01-25T03:22:47;7.20;72.10
67901;DHT22;54700;51.796;10.956;2024-01-25T03:25:14;7.20;72.00
67901;DHT22;54700;51.796;10.956;2024-01-25T03:27:41;7.10;71.80
67901;DHT22;54700;51.796;10.956;2024-01-25T03:30:08;7.10;72.10
67901;DHT22;54700;51.796;10.956;2024-01-25T03:32:37;7.10;70.10
67901;DHT22;54700;51.796;10.956;2024-01-25T03:35:05;7.20;70.30
67901;DHT22;54700;51.796;10.956;2024-01-25T03:37:33;7.20;71.00
67901;DHT22;54700;51.796;10.956;2024-01-25T03:40:00;7.20;70.40
67901;DHT22;54700;51.796;10.956;2024-01-25T03:42:27;7.10;70.40
67901;DHT22;54700;51.796;10.956;2024-01-25T03:44:53;7.10;70.50
67901;DHT22;54700;51.796;10.956;2024-01-25T03:47:20;7.10;70.90
67901;DHT22;54700;51.796;10.956;2024-01-25T03:49:48;7.10;71.00
67901;DHT22;54700;51.796;10.956;2024-01-25T03:52:15;7.00;71.50
67901;DHT22;54700;51.796;10.956;2024-01-25T03:54:45;7.00;71.70
67901;DHT22;54700;51.796;10.956;2024-01-25T03:57:12;7.10;71.60
67901;DHT22;54700;51.796;10.956;2024-01-25T03:59:39;7.10;71.70
67901;DHT22;54700;51.796;10.956;2024-01-25T04:02:05;7.20;71.80
67901;DHT22;54700;51.796;10.956;2024-01-25T04:04:32;7.20;72.00
67901;DHT22;54700;51.796;10.956;2024-01-25T04:07:00;7.20;72.30
67901;DHT22;54700;51.796;10.956;2024-01-25T04:09:27;7.20;72.70
67901;DHT22;54700;51.796;10.956;2024-01-25T04:11:55;7.30;73.00
67901;DHT22;54700;51.796;10.956;2024-01-25T04:14:22;7.30;73.10
67901;DHT22;54700;51.796;10.956;2024-01-25T04:16:49;7.30;73.20
67901;DHT22;54700;51.796;10.956;2024-01-25T04:19:16;7.30;73.20
67901;DHT22;54700;51.796;10.956;2024-01-25T04:21:43;7.30;73.10
67901;DHT22;54700;51.796;10.956;2024-01-25T04:24:11;7.30;72.80
67901;DHT22;54700;51.796;10.956;2024-01-25T04:26:38;7.30;73.00
67901;DHT22;54700;51.796;10.956;2024-01-25T04:29:05;7.30;72.60
67901;DHT22;54700;51.796;10.956;2024-01-25T04:31:32;7.30;72.80
67901;DHT22;54700;51.796;10.956;2024-01-25T04:33:59;7.30;72.80
67901;DHT22;54700;51.796;10.956;2024-01-25T04:36:25;7.30;72.70
67901;DHT22;54700;51.796;10.956;2024-01-25T04:38:55;7.30;72.80
67901;DHT22;54700;51.796;10.956;2024-01-25T04:41:23;7.30;72.80
67901;DHT22;54700;51.796;10.956;2024-01-25T04:43:49;7.30;72.70
67901;DHT22;54700;51.796;10.956;2024-01-25T04:46:16;7.30;72.80
67901;DHT22;54700;51.796;10.956;2024-01-25T04:48:43;7.30;72.40
67901;DHT22;54700;51.796;10.956;2024-01-25T04:51:15;7.30;72.20
67901;DHT22;54700;51.796;10.956;2024-01-25T04:53:42;7.30;72.20
67901;DHT22;54700;51.796;10.956;2024-01-25T04:56:09;7.30;72.20
67901;DHT22;54700;51.796;10.956;2024-01-25T04:58:37;7.30;72.20
67901;DHT22;54700;51.796;10.956;2024-01-25T05:01:04;7.30;72.10
67901;DHT22;54700;51.796;10.956;2024-01-25T05:03:32;7.30;72.20
67901;DHT22;54700;51.796;10.956;2024-01-25T05:05:59;7.30;72.20
67901;DHT22;54700;51.796;10.956;2024-01-25T05:08:27;7.30;72.30
67901;DHT22;54700;51.796;10.956;2024-01-25T05:10:54;7.30;72.50
67901;DHT22;54700;51.796;10.956;2024-01-25T05:13:22;7.30;72.70
67901;DHT22;54700;51.796;10.956;2024-01-25T05:15:50;7.20;72.70
67901;DHT22;54700;51.796;10.956;2024-01-25T05:18:17;7.20;72.70
67901;DHT22;54700;51.796;10.956;2024-01-25T05:20:44;7.20;72.60
67901;DHT22;54700;51.796;10.956;2024-01-25T05:23:11;7.20;72.70
67901;DHT22;54700;51.796;10.956;2024-01-25T05:25:38;7.20;72.60
67901;DHT22;54700;51.796;10.956;2024-01-25T05:28:05;7.20;72.80
67901;DHT22;54700;51.796;10.956;2024-01-25T05:30:32;7.20;73.00
67901;DHT22;54700;51.796;10.956;2024-01-25T05:33:00;7.10;73.40
67901;DHT22;54700;51.796;10.956;2024-01-25T05:35:27;7.10;73.50
67901;DHT22;54700;51.796;10.956;2024-01-25T05:37:54;7.10;73.60
67901;DHT22;54700;51.796;10.956;2024-01-25T05:40:21;7.10;73.90
67901;DHT22;54700;51.796;10.956;2024-01-25T05:42:48;7.10;74.10
67901;DHT22;54700;51.796;10.956;2024-01-25T05:45:15;7.10;74.20
67901;DHT22;54700;51.796;10.956;2024-01-25T05:47:45;7.10;74.50
67901;DHT22;54700;51.796;10.956;2024-01-25T05:50:13;7.00;74.90
67901;DHT22;54700;51.796;10.956;2024-01-25T05:52:40;7.00;75.10
67901;DHT22;54700;51.796;10.956;2024-01-25T05:55:07;7.00;75.30
67901;DHT22;54700;51.796;10.956;2024-01-25T05:57:34;7.00;75.60
67901;DHT22;54700;51.796;10.956;2024-01-25T06:00:04;7.00;75.90
67901;DHT22;54700;51.796;10.956;2024-01-25T06:02:36;7.00;75.90
67901;DHT22;54700;51.796;10.956;2024-01-25T06:05:03;7.00;76.50
67901;DHT22;54700;51.796;10.956;2024-01-25T06:07:32;6.90;76.90
67901;DHT22;54700;51.796;10.956;2024-01-25T06:09:59;6.90;77.40
67901;DHT22;54700;51.796;10.956;2024-01-25T06:12:26;6.80;77.40
67901;DHT22;54700;51.796;10.956;2024-01-25T06:14:53;6.70;77.60
67901;DHT22;54700;51.796;10.956;2024-01-25T06:17:19;6.70;77.90
67901;DHT22;54700;51.796;10.956;2024-01-25T06:19:46;6.70;78.10
67901;DHT22;54700;51.796;10.956;2024-01-25T06:22:13;6.70;78.10
67901;DHT22;54700;51.796;10.956;2024-01-25T06:24:43;6.70;77.90
67901;DHT22;54700;51.796;10.956;2024-01-25T06:27:10;6.70;77.30
67901;DHT22;54700;51.796;10.956;2024-01-25T06:29:37;6.70;77.50
67901;DHT22;54700;51.796;10.956;2024-01-25T06:32:05;6.70;77.50
67901;DHT22;54700;51.796;10.956;2024-01-25T06:34:33;6.60;77.40
67901;DHT22;54700;51.796;10.956;2024-01-25T06:37:00;6.60;77.40
67901;DHT22;54700;51.796;10.956;2024-01-25T06:39:27;6.60;77.30
67901;DHT22;54700;51.796;10.956;2024-01-25T06:41:55;6.60;77.50
67901;DHT22;54700;51.796;10.956;2024-01-25T06:44:22;6.60;77.70
67901;DHT22;54700;51.796;10.956;2024-01-25T06:46:51;6.60;77.80
67901;DHT22;54700;51.796;10.956;2024-01-25T06:49:24;6.60;77.90
67901;DHT22;54700;51.796;10.956;2024-01-25T06:51:51;6.60;77.90
67901;DHT22;54700;51.796;10.956;2024-01-25T06:54:18;6.50;77.70
67901;DHT22;54700;51.796;10.956;2024-01-25T06:56:46;6.60;78.40
67901;DHT22;54700;51.796;10.956;2024-01-25T06:59:16;6.50;77.80
67901;DHT22;54700;51.796;10.956;2024-01-25T07:01:43;6.50;78.10
67901;DHT22;54700;51.796;10.956;2024-01-25T07:04:11;6.50;77.90
67901;DHT22;54700;51.796;10.956;2024-01-25T07:06:42;6.60;78.10
67901;DHT22;54700;51.796;10.956;2024-01-25T07:09:23;6.60;78.10
67901;DHT22;54700;51.796;10.956;2024-01-25T07:11:53;6.60;78.00
67901;DHT22;54700;51.796;10.956;2024-01-25T07:18:02;6.60;77.80
67901;DHT22;54700;51.796;10.956;2024-01-25T07:20:34;6.60;77.80
67901;DHT22;54700;51.796;10.956;2024-01-25T07:41:08;6.40;78.50
67901;DHT22;54700;51.796;10.956;2024-01-25T07:43:35;6.40;78.60
67901;DHT22;54700;51.796;10.956;2024-01-25T07:46:05;6.40;78.70
67901;DHT22;54700;51.796;10.956;2024-01-25T07:48:32;6.40;78.80
67901;DHT22;54700;51.796;10.956;2024-01-25T07:51:12;6.40;78.80
67901;DHT22;54700;51.796;10.956;2024-01-25T07:53:40;6.40;78.90
67901;DHT22;54700;51.796;10.956;2024-01-25T07:56:10;6.50;78.70
67901;DHT22;54700;51.796;10.956;2024-01-25T07:58:37;6.50;78.80
67901;DHT22;54700;51.796;10.956;2024-01-25T08:01:20;6.50;78.80
67901;DHT22;54700;51.796;10.956;2024-01-25T08:03:54;6.50;78.70
67901;DHT22;54700;51.796;10.956;2024-01-25T08:06:26;6.40;78.80
67901;DHT22;54700;51.796;10.956;2024-01-25T08:08:53;6.40;78.90
67901;DHT22;54700;51.796;10.956;2024-01-25T08:11:34;6.40;79.10
67901;DHT22;54700;51.796;10.956;2024-01-25T08:14:11;6.30;79.20
67901;DHT22;54700;51.796;10.956;2024-01-25T08:16:38;6.30;79.30
67901;DHT22;54700;51.796;10.956;2024-01-25T08:19:05;6.30;79.20
67901;DHT22;54700;51.796;10.956;2024-01-25T08:21:32;6.30;79.20
67901;DHT22;54700;51.796;10.956;2024-01-25T08:24:01;6.30;79.30
67901;DHT22;54700;51.796;10.956;2024-01-25T08:26:28;6.30;78.90
67901;DHT22;54700;51.796;10.956;2024-01-25T08:28:56;6.40;78.90
67901;DHT22;54700;51.796;10.956;2024-01-25T08:31:24;6.40;78.60
67901;DHT22;54700;51.796;10.956;2024-01-25T08:33:57;6.40;78.60
67901;DHT22;54700;51.796;10.956;2024-01-25T08:36:24;6.40;78.10
67901;DHT22;54700;51.796;10.956;2024-01-25T08:38:53;6.50;78.00
67901;DHT22;54700;51.796;10.956;2024-01-25T08:41:38;6.50;77.70
67901;DHT22;54700;51.796;10.956;2024-01-25T08:44:20;6.60;77.40
67901;DHT22;54700;51.796;10.956;2024-01-25T08:46:50;6.70;77.10
67901;DHT22;54700;51.796;10.956;2024-01-25T08:49:22;6.70;76.60
67901;DHT22;54700;51.796;10.956;2024-01-25T08:51:52;6.70;76.50
67901;DHT22;54700;51.796;10.956;2024-01-25T08:54:45;6.80;76.00
67901;DHT22;54700;51.796;10.956;2024-01-25T08:57:30;6.70;75.90
67901;DHT22;54700;51.796;10.956;2024-01-25T09:00:04;6.70;76.20
67901;DHT22;54700;51.796;10.956;2024-01-25T09:02:35;6.70;75.90
67901;DHT22;54700;51.796;10.956;2024-01-25T09:05:03;6.80;75.90
67901;DHT22;54700;51.796;10.956;2024-01-25T09:07:31;6.80;76.00
67901;DHT22;54700;51.796;10.956;2024-01-25T09:10:04;6.80;75.40
67901;DHT22;54700;51.796;10.956;2024-01-25T09:12:34;6.90;75.00
67901;DHT22;54700;51.796;10.956;2024-01-25T09:15:03;6.90;75.00
67901;DHT22;54700;51.796;10.956;2024-01-25T09:17:30;6.90;75.20
67901;DHT22;54700;51.796;10.956;2024-01-25T09:19:57;7.00;74.90
67901;DHT22;54700;51.796;10.956;2024-01-25T09:22:25;7.00;74.30
67901;DHT22;54700;51.796;10.956;2024-01-25T09:24:54;7.10;74.20
67901;DHT22;54700;51.796;10.956;2024-01-25T09:27:25;7.10;73.30
67901;DHT22;54700;51.796;10.956;2024-01-25T09:29:53;7.20;73.30
67901;DHT22;54700;51.796;10.956;2024-01-25T09:32:23;7.20;73.40
67901;DHT22;54700;51.796;10.956;2024-01-25T09:34:50;7.30;73.30
67901;DHT22;54700;51.796;10.956;2024-01-25T09:37:19;7.40;73.10
67901;DHT22;54700;51.796;10.956;2024-01-25T09:39:51;7.40;72.50
67901;DHT22;54700;51.796;10.956;2024-01-25T09:42:19;7.50;72.40
67901;DHT22;54700;51.796;10.956;2024-01-25T09:44:46;7.50;72.40
67901;DHT22;54700;51.796;10.956;2024-01-25T09:47:15;7.50;72.10
67901;DHT22;54700;51.796;10.956;2024-01-25T09:49:48;7.50;72.00
67901;DHT22;54700;51.796;10.956;2024-01-25T09:52:15;7.60;72.30
67901;DHT22;54700;51.796;10.956;2024-01-25T09:54:43;7.50;72.30
67901;DHT22;54700;51.796;10.956;2024-01-25T09:57:13;7.50;72.30
67901;DHT22;54700;51.796;10.956;2024-01-25T09:59:42;7.50;72.30
67901;DHT22;54700;51.796;10.956;2024-01-25T10:02:10;7.50;72.20
67901;DHT22;54700;51.796;10.956;2024-01-25T10:04:38;7.50;72.30
67901;DHT22;54700;51.796;10.956;2024-01-25T10:07:06;7.50;72.50
67901;DHT22;54700;51.796;10.956;2024-01-25T10:09:38;7.50;72.30
67901;DHT22;54700;51.796;10.956;2024-01-25T10:12:06;7.60;72.20
67901;DHT22;54700;51.796;10.956;2024-01-25T10:14:33;7.50;72.10
67901;DHT22;54700;51.796;10.956;2024-01-25T10:17:05;7.60;72.40
67901;DHT22;54700;51.796;10.956;2024-01-25T10:19:32;7.60;72.00
67901;DHT22;54700;51.796;10.956;2024-01-25T10:21:59;7.70;72.00
67901;DHT22;54700;51.796;10.956;2024-01-25T10:24:30;7.70;71.60
67901;DHT22;54700;51.796;10.956;2024-01-25T10:26:58;7.70;71.80
67901;DHT22;54700;51.796;10.956;2024-01-25T10:29:38;7.70;71.70
67901;DHT22;54700;51.796;10.956;2024-01-25T10:32:05;7.70;71.60
67901;DHT22;54700;51.796;10.956;2024-01-25T10:34:34;7.70;71.60
67901;DHT22;54700;51.796;10.956;2024-01-25T10:37:03;7.70;71.50
67901;DHT22;54700;51.796;10.956;2024-01-25T10:39:35;7.70;71.30
67901;DHT22;54700;51.796;10.956;2024-01-25T10:42:02;7.70;71.00
67901;DHT22;54700;51.796;10.956;2024-01-25T10:44:30;7.80;71.20
67901;DHT22;54700;51.796;10.956;2024-01-25T10:46:58;7.80;71.20
67901;DHT22;54700;51.796;10.956;2024-01-25T10:49:26;7.90;70.60
67901;DHT22;54700;51.796;10.956;2024-01-25T10:51:55;7.90;70.90
67901;DHT22;54700;51.796;10.956;2024-01-25T10:54:28;7.90;70.20
67901;DHT22;54700;51.796;10.956;2024-01-25T10:56:58;7.90;70.10
67901;DHT22;54700;51.796;10.956;2024-01-25T10:59:26;7.90;70.20
67901;DHT22;54700;51.796;10.956;2024-01-25T11:01:55;7.90;70.20
67901;DHT22;54700;51.796;10.956;2024-01-25T11:04:23;7.90;70.00
67901;DHT22;54700;51.796;10.956;2024-01-25T11:06:50;7.90;70.30
67901;DHT22;54700;51.796;10.956;2024-01-25T11:09:18;8.00;70.70
67901;DHT22;54700;51.796;10.956;2024-01-25T11:11:47;8.00;70.70
67901;DHT22;54700;51.796;10.956;2024-01-25T11:14:16;8.00;70.40
67901;DHT22;54700;51.796;10.956;2024-01-25T11:16:43;8.10;70.10
67901;DHT22;54700;51.796;10.956;2024-01-25T11:19:18;8.10;69.30
67901;DHT22;54700;51.796;10.956;2024-01-25T11:21:47;8.10;69.70
67901;DHT22;54700;51.796;10.956;2024-01-25T11:24:15;8.10;69.90
67901;DHT22;54700;51.796;10.956;2024-01-25T11:26:44;8.10;69.80
67901;DHT22;54700;51.796;10.956;2024-01-25T11:29:12;8.10;69.60
67901;DHT22;54700;51.796;10.956;2024-01-25T11:31:45;8.10;69.60
67901;DHT22;54700;51.796;10.956;2024-01-25T11:34:14;8.00;69.80
67901;DHT22;54700;51.796;10.956;2024-01-25T11:36:42;7.90;70.10
67901;DHT22;54700;51.796;10.956;2024-01-25T11:39:09;7.90;70.10
67901;DHT22;54700;51.796;10.956;2024-01-25T11:41:37;7.90;70.10
67901;DHT22;54700;51.796;10.956;2024-01-25T11:44:04;8.00;70.40
67901;DHT22;54700;51.796;10.956;2024-01-25T11:46:32;8.00;70.00
67901;DHT22;54700;51.796;10.956;2024-01-25T11:49:00;8.00;70.00
67901;DHT22;54700;51.796;10.956;2024-01-25T11:51:28;8.00;70.10
67901;DHT22;54700;51.796;10.956;2024-01-25T11:53:56;8.00;70.20
67901;DHT22;54700;51.796;10.956;2024-01-25T11:56:24;8.10;70.10
67901;DHT22;54700;51.796;10.956;2024-01-25T11:58:55;8.00;69.70
67901;DHT22;54700;51.796;10.956;2024-01-25T12:01:23;8.10;70.20
67901;DHT22;54700;51.796;10.956;2024-01-25T12:03:51;8.20;69.90
67901;DHT22;54700;51.796;10.956;2024-01-25T12:06:22;8.20;69.20
67901;DHT22;54700;51.796;10.956;2024-01-25T12:08:50;8.20;68.70
67901;DHT22;54700;51.796;10.956;2024-01-25T12:11:17;8.30;69.20
67901;DHT22;54700;51.796;10.956;2024-01-25T12:13:44;8.30;68.90
67901;DHT22;54700;51.796;10.956;2024-01-25T12:16:11;8.30;68.60
67901;DHT22;54700;51.796;10.956;2024-01-25T12:18:39;8.30;68.40
67901;DHT22;54700;51.796;10.956;2024-01-25T12:21:07;8.20;68.60
67901;DHT22;54700;51.796;10.956;2024-01-25T12:23:36;8.20;69.10
67901;DHT22;54700;51.796;10.956;2024-01-25T12:26:04;8.30;68.30
67901;DHT22;54700;51.796;10.956;2024-01-25T12:28:32;8.20;69.60
67901;DHT22;54700;51.796;10.956;2024-01-25T12:30:59;8.20;68.50
67901;DHT22;54700;51.796;10.956;2024-01-25T12:33:28;8.10;68.60
67901;DHT22;54700;51.796;10.956;2024-01-25T12:35:55;8.10;69.10
67901;DHT22;54700;51.796;10.956;2024-01-25T12:38:24;8.10;68.70
67901;DHT22;54700;51.796;10.956;2024-01-25T12:40:53;8.10;69.00
67901;DHT22;54700;51.796;10.956;2024-01-25T12:43:20;8.00;68.70
67901;DHT22;54700;51.796;10.956;2024-01-25T12:45:47;8.00;69.20
67901;DHT22;54700;51.796;10.956;2024-01-25T12:48:14;7.90;68.80
67901;DHT22;54700;51.796;10.956;2024-01-25T12:50:41;7.90;68.80
67901;DHT22;54700;51.796;10.956;2024-01-25T12:53:11;7.90;69.00
67901;DHT22;54700;51.796;10.956;2024-01-25T12:55:39;7.90;69.40
67901;DHT22;54700;51.796;10.956;2024-01-25T12:58:08;7.90;69.40
67901;DHT22;54700;51.796;10.956;2024-01-25T13:00:35;7.80;69.40
67901;DHT22;54700;51.796;10.956;2024-01-25T13:03:02;7.80;69.30
67901;DHT22;54700;51.796;10.956;2024-01-25T13:05:30;7.70;69.50
67901;DHT22;54700;51.796;10.956;2024-01-25T13:08:00;7.70;70.00
67901;DHT22;54700;51.796;10.956;2024-01-25T13:10:28;7.70;70.00
67901;DHT22;54700;51.796;10.956;2024-01-25T13:12:55;7.70;70.10
67901;DHT22;54700;51.796;10.956;2024-01-25T13:15:24;7.70;69.70
67901;DHT22;54700;51.796;10.956;2024-01-25T13:17:51;7.60;69.60
67901;DHT22;54700;51.796;10.956;2024-01-25T13:20:18;7.60;70.70
67901;DHT22;54700;51.796;10.956;2024-01-25T13:22:46;7.60;69.70
67901;DHT22;54700;51.796;10.956;2024-01-25T13:25:12;7.50;69.80
67901;DHT22;54700;51.796;10.956;2024-01-25T13:27:40;7.50;69.80
67901;DHT22;54700;51.796;10.956;2024-01-25T13:30:07;7.50;69.80
67901;DHT22;54700;51.796;10.956;2024-01-25T13:32:38;7.50;70.10
67901;DHT22;54700;51.796;10.956;2024-01-25T13:35:06;7.50;70.30
67901;DHT22;54700;51.796;10.956;2024-01-25T13:37:34;7.40;70.00
67901;DHT22;54700;51.796;10.956;2024-01-25T13:40:01;7.40;69.70
67901;DHT22;54700;51.796;10.956;2024-01-25T13:42:31;7.50;69.60
67901;DHT22;54700;51.796;10.956;2024-01-25T13:44:58;7.50;69.50
67901;DHT22;54700;51.796;10.956;2024-01-25T13:47:25;7.50;69.80
67901;DHT22;54700;51.796;10.956;2024-01-25T13:49:56;7.60;69.70
67901;DHT22;54700;51.796;10.956;2024-01-25T13:52:23;7.70;69.20
67901;DHT22;54700;51.796;10.956;2024-01-25T13:54:50;7.70;69.10
67901;DHT22;54700;51.796;10.956;2024-01-25T13:57:17;7.80;68.50
67901;DHT22;54700;51.796;10.956;2024-01-25T13:59:45;7.90;68.50
67901;DHT22;54700;51.796;10.956;2024-01-25T14:02:15;8.00;68.40
67901;DHT22;54700;51.796;10.956;2024-01-25T14:04:44;8.00;67.90
67901;DHT22;54700;51.796;10.956;2024-01-25T14:07:13;8.00;68.60
67901;DHT22;54700;51.796;10.956;2024-01-25T14:09:53;8.00;67.60
67901;DHT22;54700;51.796;10.956;2024-01-25T14:12:22;8.00;66.80
67901;DHT22;54700;51.796;10.956;2024-01-25T14:14:51;7.90;66.20
67901;DHT22;54700;51.796;10.956;2024-01-25T14:17:20;7.90;66.90
67901;DHT22;54700;51.796;10.956;2024-01-25T14:20:18;7.90;66.80
67901;DHT22;54700;51.796;10.956;2024-01-25T14:22:47;7.80;66.50
67901;DHT22;54700;51.796;10.956;2024-01-25T14:25:14;7.80;66.00
67901;DHT22;54700;51.796;10.956;2024-01-25T14:27:41;7.70;66.00
67901;DHT22;54700;51.796;10.956;2024-01-25T14:30:09;7.70;66.00
67901;DHT22;54700;51.796;10.956;2024-01-25T14:32:36;7.70;65.50
67901;DHT22;54700;51.796;10.956;2024-01-25T14:35:03;7.70;65.60
67901;DHT22;54700;51.796;10.956;2024-01-25T14:37:31;7.80;65.50
67901;DHT22;54700;51.796;10.956;2024-01-25T14:40:02;7.80;64.80
67901;DHT22;54700;51.796;10.956;2024-01-25T14:42:29;7.80;65.20
67901;DHT22;54700;51.796;10.956;2024-01-25T14:44:56;7.90;64.40
67901;DHT22;54700;51.796;10.956;2024-01-25T14:47:26;7.90;64.20
67901;DHT22;54700;51.796;10.956;2024-01-25T14:49:53;7.90;64.20
67901;DHT22;54700;51.796;10.956;2024-01-25T14:52:20;7.90;63.30
67901;DHT22;54700;51.796;10.956;2024-01-25T14:54:47;7.90;63.60
67901;DHT22;54700;51.796;10.956;2024-01-25T14:57:15;7.90;64.30
67901;DHT22;54700;51.796;10.956;2024-01-25T14:59:42;7.90;64.90
67901;DHT22;54700;51.796;10.956;2024-01-25T15:02:10;7.80;65.60
67901;DHT22;54700;51.796;10.956;2024-01-25T15:04:37;7.80;66.00
67901;DHT22;54700;51.796;10.956;2024-01-25T15:07:04;7.70;65.90
67901;DHT22;54700;51.796;10.956;2024-01-25T15:09:31;7.60;65.90
67901;DHT22;54700;51.796;10.956;2024-01-25T15:11:58;7.60;65.90
67901;DHT22;54700;51.796;10.956;2024-01-25T15:14:26;7.50;66.30
67901;DHT22;54700;51.796;10.956;2024-01-25T15:16:53;7.50;66.00
67901;DHT22;54700;51.796;10.956;2024-01-25T15:19:21;7.60;66.40
67901;DHT22;54700;51.796;10.956;2024-01-25T15:21:48;7.50;66.60
67901;DHT22;54700;51.796;10.956;2024-01-25T15:24:19;7.50;66.80
67901;DHT22;54700;51.796;10.956;2024-01-25T15:26:46;7.40;66.90
67901;DHT22;54700;51.796;10.956;2024-01-25T15:29:13;7.40;67.20
67901;DHT22;54700;51.796;10.956;2024-01-25T15:31:42;7.40;67.40
67901;DHT22;54700;51.796;10.956;2024-01-25T15:34:08;7.30;67.10
67901;DHT22;54700;51.796;10.956;2024-01-25T15:36:35;7.30;67.40
67901;DHT22;54700;51.796;10.956;2024-01-25T15:39:03;7.20;67.30
67901;DHT22;54700;51.796;10.956;2024-01-25T15:41:30;7.20;67.80
67901;DHT22;54700;51.796;10.956;2024-01-25T15:43:57;7.10;67.80
67901;DHT22;54700;51.796;10.956;2024-01-25T15:46:24;7.10;68.30
67901;DHT22;54700;51.796;10.956;2024-01-25T15:48:52;7.00;68.30
67901;DHT22;54700;51.796;10.956;2024-01-25T15:51:21;7.00;69.10
67901;DHT22;54700;51.796;10.956;2024-01-25T15:53:48;6.90;69.80
67901;DHT22;54700;51.796;10.956;2024-01-25T15:56:15;6.90;70.70
67901;DHT22;54700;51.796;10.956;2024-01-25T15:58:42;6.80;70.90